createdAt,value
2022-07-27T11:25:24.205Z,948.89
2022-07-27T11:26:24.264Z,949.15
2022-07-27T11:27:25.498Z,947.29
2022-07-27T11:28:24.460Z,948.10
2022-07-27T11:29:24.339Z,947.52
2022-07-27T11:30:24.402Z,947.45
2022-07-27T11:31:54.168Z,947.42
2022-07-27T11:32:24.438Z,949.18
2022-07-27T11:33:24.338Z,948.72
2022-07-27T11:34:24.292Z,950.27
2022-07-27T11:35:24.309Z,948.44
2022-07-27T11:36:24.388Z,947.91
2022-07-27T11:37:24.309Z,948.17
2022-07-27T11:38:24.303Z,949.72
2022-07-27T11:39:54.334Z,949.49
2022-07-27T11:40:53.961Z,947.75
2022-07-27T11:41:47.879Z,948.66
2022-07-27T11:42:24.521Z,949.35
2022-07-27T11:43:24.319Z,949.74
2022-07-27T11:44:24.458Z,949.75
2022-07-27T11:45:24.342Z,948.90
2022-07-27T11:46:24.443Z,948.84
2022-07-27T11:47:24.491Z,949.36
2022-07-27T11:48:24.339Z,949.58
2022-07-27T11:49:24.885Z,949.32
2022-07-27T11:50:24.340Z,949.30
2022-07-27T11:51:24.398Z,950.00
2022-07-27T11:52:24.325Z,949.14
2022-07-27T11:53:24.360Z,948.99
2022-07-27T11:54:24.400Z,949.07
2022-07-27T11:55:24.349Z,948.30
2022-07-27T11:56:24.367Z,947.25
2022-07-27T11:57:24.368Z,948.08
2022-07-27T11:58:24.402Z,948.83
2022-07-27T11:59:24.371Z,948.84
2022-07-27T12:00:24.413Z,948.39
2022-07-27T12:01:24.391Z,947.85
2022-07-27T12:02:24.411Z,948.16
2022-07-27T12:03:32.061Z,947.15
2022-07-27T12:04:24.473Z,947.82
2022-07-27T12:05:24.570Z,947.90
2022-07-27T12:06:24.803Z,948.91
2022-07-27T12:07:24.384Z,948.58
2022-07-27T12:08:24.457Z,947.56
2022-07-27T12:09:24.468Z,948.27
2022-07-27T12:10:24.381Z,947.99
2022-07-27T12:11:33.861Z,949.27
2022-07-27T12:12:24.401Z,948.60
2022-07-27T12:13:24.424Z,948.82
2022-07-27T12:14:24.409Z,948.41
2022-07-27T12:15:44.423Z,948.33
2022-07-27T12:16:25.006Z,948.61
2022-07-27T12:17:24.429Z,948.16
2022-07-27T12:18:24.498Z,948.30
2022-07-27T12:19:24.434Z,949.13
2022-07-27T12:20:24.405Z,948.62
2022-07-27T12:21:24.445Z,948.83
2022-07-27T12:22:24.425Z,948.77
2022-07-27T12:23:24.438Z,948.76
2022-07-27T12:24:24.415Z,949.55
2022-07-27T12:25:24.434Z,949.93
2022-07-27T12:26:24.811Z,948.55
2022-07-27T12:27:24.440Z,948.99
2022-07-27T12:28:24.441Z,948.62
2022-07-27T12:29:24.424Z,948.97
2022-07-27T12:30:24.552Z,948.15
2022-07-27T12:31:24.526Z,948.17
2022-07-27T12:32:24.432Z,949.43
2022-07-27T12:33:24.427Z,948.53
2022-07-27T12:34:24.450Z,948.39
2022-07-27T12:35:24.465Z,948.51
2022-07-27T12:36:24.496Z,948.41
2022-07-27T12:37:24.458Z,948.56
2022-07-27T12:38:24.470Z,948.85
2022-07-27T12:39:24.455Z,948.06
2022-07-27T12:40:24.471Z,948.40
2022-07-27T12:41:24.525Z,947.58
2022-07-27T12:42:24.533Z,948.07
2022-07-27T12:43:24.541Z,948.90
2022-07-27T12:44:24.536Z,948.78
2022-07-27T12:45:24.545Z,948.78
2022-07-27T12:46:24.752Z,948.61
2022-07-27T12:47:27.598Z,948.97
2022-07-27T12:48:24.499Z,949.03
2022-07-27T12:49:24.544Z,948.42
2022-07-27T12:50:24.485Z,949.70
2022-07-27T12:51:24.488Z,948.58
2022-07-27T12:52:24.497Z,950.23
2022-07-27T12:53:24.493Z,949.61
2022-07-27T12:54:24.483Z,949.02
2022-07-27T12:55:24.509Z,949.42
2022-07-27T12:56:27.108Z,950.00
2022-07-27T12:57:53.408Z,949.30
2022-07-27T12:58:24.501Z,949.70
2022-07-27T12:59:24.499Z,949.77
2022-07-27T13:00:29.181Z,949.67
2022-07-27T13:01:24.565Z,949.77
2022-07-27T13:02:24.556Z,949.32
2022-07-27T13:03:24.532Z,949.72
2022-07-27T13:04:24.694Z,949.55
2022-07-27T13:05:24.517Z,950.00
2022-07-27T13:06:24.539Z,949.00
2022-07-27T13:07:24.532Z,949.03
2022-07-27T13:08:24.613Z,948.98
2022-07-27T13:09:24.528Z,949.28
2022-07-27T13:10:24.572Z,949.80
2022-07-27T13:11:24.638Z,949.98
2022-07-27T13:12:24.539Z,949.59
2022-07-27T13:13:24.949Z,950.06
2022-07-27T13:14:24.554Z,949.80
2022-07-27T13:15:24.555Z,950.19
2022-07-27T13:16:24.659Z,949.59
2022-07-27T13:17:24.560Z,949.46
2022-07-27T13:18:24.594Z,950.41
2022-07-27T13:19:24.573Z,949.44
2022-07-27T13:20:24.574Z,950.61
2022-07-27T13:21:24.581Z,949.15
2022-07-27T13:22:24.566Z,949.82
2022-07-27T13:23:24.576Z,949.58
2022-07-27T13:24:24.577Z,949.43
2022-07-27T13:25:24.571Z,949.78
2022-07-27T13:26:25.200Z,949.90
2022-07-27T13:27:24.576Z,949.85
2022-07-27T13:28:24.639Z,950.64
2022-07-27T13:29:24.597Z,950.04
2022-07-27T13:30:24.632Z,950.22
2022-07-27T13:31:24.920Z,949.00
2022-07-27T13:32:24.718Z,949.16
2022-07-27T13:33:24.624Z,949.07
2022-07-27T13:34:24.793Z,949.25
2022-07-27T13:35:24.689Z,948.95
2022-07-27T13:36:24.672Z,949.14
2022-07-27T13:37:24.626Z,949.48
2022-07-27T13:38:24.628Z,950.00
2022-07-27T13:39:24.641Z,949.73
2022-07-27T13:40:24.616Z,949.38
2022-07-27T13:41:24.679Z,950.31
2022-07-27T13:42:24.640Z,950.16
2022-07-27T13:43:24.652Z,949.18
2022-07-27T13:44:58.368Z,949.00
2022-07-27T13:45:24.869Z,948.61
2022-07-27T13:46:24.746Z,949.16
2022-07-27T13:47:24.667Z,949.25
2022-07-27T13:48:24.800Z,948.85
2022-07-27T13:49:24.929Z,948.66
2022-07-27T13:50:24.645Z,948.49
2022-07-27T13:51:24.694Z,948.75
2022-07-27T13:52:24.696Z,948.76
2022-07-27T13:53:24.660Z,949.12
2022-07-27T13:54:24.671Z,949.40
2022-07-27T13:55:28.092Z,949.24
2022-07-27T13:56:24.683Z,949.74
2022-07-27T13:57:24.675Z,949.22
2022-07-27T13:58:24.667Z,949.72
2022-07-27T13:59:24.683Z,950.10
2022-07-27T14:00:24.695Z,949.57
2022-07-27T14:01:24.814Z,950.25
2022-07-27T14:02:25.887Z,949.66
2022-07-27T14:03:25.364Z,949.53
2022-07-27T14:04:24.683Z,950.14
2022-07-27T14:05:24.706Z,950.02
2022-07-27T14:06:24.724Z,949.86
2022-07-27T14:07:28.079Z,949.90
2022-07-27T14:08:24.705Z,949.77
2022-07-27T14:09:24.730Z,949.89
2022-07-27T14:10:24.755Z,949.90
2022-07-27T14:11:24.718Z,950.57
2022-07-27T14:12:24.702Z,950.55
2022-07-27T14:13:24.731Z,950.15
2022-07-27T14:14:27.005Z,949.91
2022-07-27T14:15:24.726Z,950.04
2022-07-27T14:16:24.837Z,950.16
2022-07-27T14:17:24.936Z,950.17
2022-07-27T14:18:24.834Z,950.48
2022-07-27T14:19:24.864Z,950.11
2022-07-27T14:20:24.898Z,950.24
2022-07-27T14:21:24.957Z,950.57
2022-07-27T14:22:24.917Z,950.84
2022-07-27T14:23:25.022Z,950.57
2022-07-27T14:24:24.938Z,950.92
2022-07-27T14:25:24.993Z,950.82
2022-07-27T14:26:25.305Z,950.77
2022-07-27T14:27:25.017Z,950.71
2022-07-27T14:28:25.433Z,949.37
2022-07-27T14:29:25.115Z,949.63
2022-07-27T14:30:25.146Z,950.39
